首页
METAR-TAF:

METAR-TAF

机场 :

夏洛特道格拉斯國際機場

夏洛特, 北卡罗来纳州, 美国

纬度: 35-12-48N, 经度: 080-56-55W, 海拔: 228米

当前天气观测

该预报发布于38分钟前的10:52 UTC
静风
温度 0°C
湿度 100%
气压 1023 hPa
能見度: 12.9公里
天空无云

METAR: KCLT 171052Z 00000KT 8SM CLR 00/00 A3020 RMK AO2 SLP230 T00000000

时间: 06:30 (11:30 UTC)

预报

该预报发布于1小时和25分钟前的10:05 UTC
预报有效从17日的 10点(UTC)到 18日的 12点(UTC)
风速节,风向
能見度: 10公里
天空无云
短暂存在
从 17日的 11点(UTC)到 17日的 13点(UTC)
能見度: 8.0公里
轻雾
从 17日的 1300点(UTC)
风速4节,风向东转东北
能見度: 10公里
少量云层高于25000英尺
从 18日的 0600点(UTC)
风速2节,风向多变
能見度: 8.0公里
少量云层高于25000英尺
轻雾

TAF: KCLT 171005Z 1710/1812 00000KT P6SM SKC TEMPO 1711/1713 5SM BR FM171300 07004KT P6SM FEW250 FM180600 VRB02KT 5SM BR FEW250

超过4000个机场的气象观测和天气预报(METAR&TAF报告)。

可查询的气象台以黄色和红色小点在地图上表示。

将鼠标移到小点上方,可查看气象台名称。

然后点击查看天气观测和预报。

如需切换地图:点击带黑十字的绿色按钮放大地图;点击带横线的绿色按钮缩小地图;或者点击绿色箭头查看邻近地区的地图。


METAR-TAF: